createdAt,value
2019-02-15T00:03:27.205Z,98503.56
2019-02-15T00:08:31.942Z,98503.33
2019-02-15T00:13:37.200Z,98506.69
2019-02-15T00:18:52.693Z,98509.55
2019-02-15T00:23:57.436Z,98510.98
2019-02-15T00:29:02.182Z,98519.19
2019-02-15T00:34:06.927Z,98516.18
2019-02-15T00:39:14.750Z,98512.63
2019-02-15T00:44:19.585Z,98518.89
2019-02-15T00:49:26.066Z,98507.93
2019-02-15T00:54:35.529Z,98514.20
2019-02-15T00:59:53.891Z,98515.17
2019-02-15T01:05:15.009Z,98519.09
2019-02-15T01:10:27.536Z,98515.95
2019-02-15T01:15:32.276Z,98518.98
2019-02-15T01:20:38.467Z,98523.37
2019-02-15T01:25:45.140Z,98522.58
2019-02-15T01:30:51.526Z,98508.25
2019-02-15T01:36:00.671Z,98506.47
2019-02-15T01:41:09.922Z,98503.62
2019-02-15T01:46:17.838Z,98503.83
2019-02-15T01:51:24.113Z,98502.09
2019-02-15T01:56:28.883Z,98505.76
2019-02-15T02:01:33.919Z,98509.46
2019-02-15T02:06:38.647Z,98503.76
2019-02-15T02:11:43.392Z,98498.53
2019-02-15T02:16:49.272Z,98492.63
2019-02-15T02:21:53.999Z,98487.13
2019-02-15T02:26:58.743Z,98490.84
2019-02-15T02:32:03.485Z,98502.55
2019-02-15T02:37:08.234Z,98496.77
2019-02-15T02:42:13.074Z,98499.06
2019-02-15T02:47:19.508Z,98502.61
2019-02-15T02:52:24.201Z,98499.36
2019-02-15T02:57:29.049Z,98503.59
2019-02-15T03:02:33.684Z,98503.88
2019-02-15T03:07:38.535Z,98510.59
2019-02-15T03:12:43.275Z,98506.64
2019-02-15T03:17:47.973Z,98521.05
2019-02-15T03:22:52.763Z,98505.81
2019-02-15T03:27:57.331Z,98510.22
2019-02-15T03:33:02.911Z,98525.85
2019-02-15T03:38:09.245Z,98517.33
2019-02-15T03:43:13.980Z,98523.64
2019-02-15T03:48:20.361Z,98526.72
2019-02-15T03:53:24.957Z,98528.16
2019-02-15T03:58:30.148Z,98524.98
2019-02-15T04:03:34.898Z,98524.85
2019-02-15T04:08:39.661Z,98529.45
2019-02-15T04:13:44.386Z,98531.98
2019-02-15T04:18:50.663Z,98525.30
2019-02-15T04:23:55.407Z,98540.61
2019-02-15T04:29:03.216Z,98542.19
2019-02-15T04:34:07.974Z,98543.35
2019-02-15T04:39:15.121Z,98551.55
2019-02-15T04:44:21.219Z,98554.94
2019-02-15T04:49:27.515Z,98561.81
2019-02-15T04:54:35.079Z,98565.33
2019-02-15T04:59:39.632Z,98563.12
2019-02-15T05:04:44.415Z,98568.84
2019-02-15T05:09:49.049Z,98569.30
2019-02-15T05:14:57.374Z,98577.45
2019-02-15T05:20:03.982Z,98591.82
2019-02-15T05:25:09.026Z,98594.73
2019-02-15T05:30:13.654Z,98599.66
2019-02-15T05:35:19.410Z,98610.34
2019-02-15T05:40:24.049Z,98612.64
2019-02-15T05:45:34.136Z,98631.55
2019-02-15T05:50:38.762Z,98628.41
2019-02-15T05:55:43.628Z,98636.75
2019-02-15T06:00:48.350Z,98661.89
2019-02-15T06:05:53.319Z,98663.25
2019-02-15T06:11:06.637Z,98666.30
2019-02-15T06:16:04.317Z,98677.30
2019-02-15T06:21:09.101Z,98678.21
2019-02-15T06:26:13.813Z,98679.21
2019-02-15T06:31:20.186Z,98688.48
2019-02-15T06:36:26.676Z,98697.45
2019-02-15T06:41:31.512Z,98703.66
2019-02-15T06:46:36.362Z,98707.20
2019-02-15T06:51:43.152Z,98704.70
2019-02-15T06:56:48.080Z,98715.61
2019-02-15T07:02:00.113Z,98709.60
2019-02-15T07:07:06.491Z,98721.31
2019-02-15T07:12:11.439Z,98727.01
2019-02-15T07:17:16.283Z,98727.88
2019-02-15T07:22:23.004Z,98729.22
2019-02-15T07:27:27.712Z,98734.44
2019-02-15T07:32:34.000Z,98741.90
2019-02-15T07:37:42.446Z,98744.73
2019-02-15T07:42:47.164Z,98746.25
2019-02-15T07:47:52.943Z,98747.30
2019-02-15T07:52:59.208Z,98744.06
2019-02-15T07:58:03.959Z,98758.48
2019-02-15T08:03:08.695Z,98766.13
2019-02-15T08:08:13.379Z,98759.56
2019-02-15T08:13:18.384Z,98767.34
2019-02-15T08:18:23.139Z,98765.60
2019-02-15T08:23:27.874Z,98759.64
2019-02-15T08:28:33.733Z,98770.54
2019-02-15T08:33:39.100Z,98772.82
2019-02-15T08:38:43.950Z,98792.67
2019-02-15T08:43:48.791Z,98790.77
2019-02-15T08:48:53.635Z,98795.66
2019-02-15T08:53:59.909Z,98786.47
2019-02-15T08:59:06.017Z,98795.25
2019-02-15T09:04:12.731Z,98787.69
2019-02-15T09:09:17.518Z,98786.44
2019-02-15T09:14:22.261Z,98794.70
2019-02-15T09:19:27.016Z,98801.02
2019-02-15T09:24:31.851Z,98802.70
2019-02-15T09:29:36.587Z,98803.33
2019-02-15T09:34:42.840Z,98808.95
2019-02-15T09:39:47.750Z,98810.38
2019-02-15T09:44:52.357Z,98808.47
2019-02-15T09:49:57.098Z,98799.23
2019-02-15T09:55:01.860Z,98805.98
2019-02-15T10:00:10.688Z,98789.69
2019-02-15T10:05:15.523Z,98812.71
2019-02-15T10:10:20.164Z,98808.76
2019-02-15T10:15:25.931Z,98810.92
2019-02-15T10:20:31.995Z,98807.64
2019-02-15T10:25:37.262Z,98813.05
2019-02-15T10:30:42.104Z,98810.38
2019-02-15T10:35:46.953Z,98808.67
2019-02-15T10:40:53.546Z,98807.34
2019-02-15T10:45:58.594Z,98811.04
2019-02-15T10:51:03.334Z,98809.09
2019-02-15T10:56:09.816Z,98809.41
2019-02-15T11:01:14.558Z,98805.88
2019-02-15T11:06:19.302Z,98804.59
2019-02-15T11:11:24.243Z,98801.94
2019-02-15T11:16:28.985Z,98807.05
2019-02-15T11:21:33.832Z,98806.20
2019-02-15T11:26:40.321Z,98813.97
2019-02-15T11:31:45.064Z,98804.36
2019-02-15T11:36:49.799Z,98806.27
2019-02-15T11:41:54.564Z,98809.11
2019-02-15T11:46:59.287Z,98811.99
2019-02-15T11:52:05.672Z,98816.67
2019-02-15T11:57:10.327Z,98812.25
2019-02-15T12:02:15.052Z,98813.83
2019-02-15T12:07:22.208Z,98816.86
2019-02-15T12:12:28.462Z,98811.38
2019-02-15T12:17:33.388Z,98805.44
2019-02-15T12:22:39.862Z,98813.30
2019-02-15T12:27:44.510Z,98801.55
2019-02-15T12:32:49.346Z,98800.02
2019-02-15T12:37:55.421Z,98802.53
2019-02-15T12:43:00.288Z,98807.66
2019-02-15T12:48:05.107Z,98813.63
2019-02-15T12:53:10.276Z,98809.89
2019-02-15T12:58:17.496Z,98808.28
2019-02-15T13:03:22.164Z,98807.84
2019-02-15T13:08:27.048Z,98809.16
2019-02-15T13:13:32.940Z,98811.03
2019-02-15T13:18:37.969Z,98817.61
2019-02-15T13:23:42.820Z,98824.25
2019-02-15T13:28:50.731Z,98817.89
2019-02-15T13:33:57.070Z,98816.46
2019-02-15T13:39:02.083Z,98819.95
2019-02-15T13:44:08.344Z,98815.67
2019-02-15T13:49:14.508Z,98820.91
2019-02-15T13:54:19.259Z,98812.69
2019-02-15T13:59:23.999Z,98814.36
2019-02-15T14:04:28.847Z,98814.56
2019-02-15T14:09:33.692Z,98810.03
2019-02-15T14:14:38.454Z,98814.45
2019-02-15T14:19:43.176Z,98805.16
2019-02-15T14:24:48.015Z,98813.41
2019-02-15T14:29:52.760Z,98822.45
2019-02-15T14:34:58.136Z,98815.20
2019-02-15T14:40:02.960Z,98816.62
2019-02-15T14:45:10.707Z,98804.05
2019-02-15T14:50:16.030Z,98801.11
2019-02-15T14:55:21.179Z,98795.98
2019-02-15T15:00:27.880Z,98802.88
2019-02-15T15:05:34.367Z,98814.56
2019-02-15T15:10:40.233Z,98820.58
2019-02-15T15:15:45.166Z,98811.69
2019-02-15T15:20:49.915Z,98814.28
2019-02-15T15:25:56.613Z,98815.03
2019-02-15T15:31:02.445Z,98820.14
2019-02-15T15:36:08.121Z,98827.55
2019-02-15T15:41:14.748Z,98837.05
2019-02-15T15:46:19.574Z,98849.63
2019-02-15T15:51:24.742Z,98853.73
2019-02-15T15:56:30.251Z,98856.72
2019-02-15T16:01:36.157Z,98865.38
2019-02-15T16:06:41.000Z,98869.98
2019-02-15T16:11:45.980Z,98872.61
2019-02-15T16:16:50.795Z,98887.73
2019-02-15T16:21:57.273Z,98896.89
2019-02-15T16:27:02.339Z,98909.21
2019-02-15T16:32:09.016Z,98912.59
2019-02-15T16:37:13.665Z,98932.45
2019-02-15T16:42:20.363Z,98932.01
2019-02-15T16:47:25.396Z,98940.44
2019-02-15T16:52:30.746Z,98948.69
2019-02-15T16:57:35.793Z,98959.05
2019-02-15T17:02:41.456Z,98960.59
2019-02-15T17:07:46.215Z,98959.66
2019-02-15T17:12:54.112Z,98954.12
2019-02-15T17:17:59.367Z,98963.78
2019-02-15T17:23:04.018Z,98969.42
2019-02-15T17:28:10.978Z,98969.16
2019-02-15T17:33:15.878Z,98970.83
2019-02-15T17:38:20.702Z,98967.14
2019-02-15T17:43:27.393Z,98966.13
2019-02-15T17:48:32.038Z,98976.88
2019-02-15T17:53:37.002Z,98977.88
2019-02-15T17:58:41.824Z,98982.25
2019-02-15T18:03:46.568Z,98976.98
2019-02-15T18:08:51.512Z,98971.14
2019-02-15T18:13:56.354Z,98969.88
2019-02-15T18:19:09.782Z,98977.53
2019-02-15T18:24:08.528Z,98976.75
2019-02-15T18:29:14.883Z,98970.23
2019-02-15T18:34:19.745Z,98966.78
2019-02-15T18:39:25.496Z,98968.05
2019-02-15T18:44:31.576Z,98966.63
2019-02-15T18:49:36.518Z,98956.94
2019-02-15T18:54:41.275Z,98966.09
2019-02-15T18:59:46.104Z,98977.77
2019-02-15T19:04:53.374Z,98976.80
2019-02-15T19:10:00.041Z,98971.16
2019-02-15T19:15:06.791Z,98967.17
2019-02-15T19:20:14.299Z,98957.36
2019-02-15T19:25:20.763Z,98950.24
2019-02-15T19:30:33.309Z,98949.97
2019-02-15T19:35:40.708Z,98953.80
2019-02-15T19:40:45.674Z,98957.06
2019-02-15T19:45:51.904Z,98956.31
2019-02-15T19:50:56.675Z,98966.36
2019-02-15T19:56:01.279Z,98967.17
2019-02-15T20:01:06.576Z,98972.37
2019-02-15T20:06:12.318Z,98970.48
2019-02-15T20:11:18.926Z,98969.46
2019-02-15T20:16:23.794Z,98977.39
2019-02-15T20:21:28.530Z,98981.69
2019-02-15T20:26:33.494Z,98976.69
2019-02-15T20:31:38.612Z,98980.44
2019-02-15T20:36:45.094Z,98973.02
2019-02-15T20:41:49.836Z,98973.67
2019-02-15T20:46:54.925Z,98981.30
2019-02-15T20:51:59.602Z,98968.73
2019-02-15T20:57:04.377Z,98978.33
2019-02-15T21:02:11.473Z,98982.10
2019-02-15T21:07:17.974Z,98979.78
2019-02-15T21:12:24.916Z,98980.47
2019-02-15T21:17:29.602Z,98983.17
2019-02-15T21:22:34.334Z,98985.52
2019-02-15T21:27:39.070Z,98980.26
2019-02-15T21:32:44.226Z,98988.00
2019-02-15T21:37:51.424Z,98989.28
2019-02-15T21:42:55.995Z,98988.81
2019-02-15T21:48:02.239Z,98984.45
2019-02-15T21:53:08.011Z,98988.18
2019-02-15T21:58:15.617Z,98986.79
2019-02-15T22:03:21.902Z,98989.84
2019-02-15T22:08:27.472Z,98993.22
2019-02-15T22:13:32.131Z,98991.34
2019-02-15T22:18:36.980Z,98981.43
2019-02-15T22:23:42.924Z,98974.58
2019-02-15T22:28:49.198Z,98978.05
2019-02-15T22:33:53.938Z,98971.66
2019-02-15T22:38:58.572Z,98974.51
2019-02-15T22:44:04.311Z,98972.02
2019-02-15T22:49:09.089Z,98963.16
2019-02-15T22:54:13.829Z,98957.94
2019-02-15T22:59:18.877Z,98958.22
2019-02-15T23:04:23.629Z,98962.82
2019-02-15T23:09:28.363Z,98962.84
2019-02-15T23:14:33.108Z,98971.91
2019-02-15T23:19:37.849Z,98964.64
2019-02-15T23:24:42.592Z,98965.96
2019-02-15T23:29:47.340Z,98967.66
2019-02-15T23:34:52.493Z,98959.63
2019-02-15T23:39:57.131Z,98961.56
2019-02-15T23:45:01.769Z,98966.54
2019-02-15T23:50:08.448Z,98960.02
2019-02-15T23:55:13.613Z,98966.98
